sensor_id;sensor_type;location;lat;lon;timestamp;P1;durP1;ratioP1;P2;durP2;ratioP2
14470;SDS011;7321;50.802;4.336;2023-11-18T00:00:29;19.07;;;15.10;;
14470;SDS011;7321;50.802;4.336;2023-11-18T00:02:54;20.73;;;15.80;;
14470;SDS011;7321;50.802;4.336;2023-11-18T00:05:20;22.30;;;16.40;;
14470;SDS011;7321;50.802;4.336;2023-11-18T00:07:46;23.93;;;16.93;;
14470;SDS011;7321;50.802;4.336;2023-11-18T00:10:12;24.67;;;16.20;;
14470;SDS011;7321;50.802;4.336;2023-11-18T00:12:38;22.83;;;16.23;;
14470;SDS011;7321;50.802;4.336;2023-11-18T00:15:07;23.63;;;15.50;;
14470;SDS011;7321;50.802;4.336;2023-11-18T00:17:35;21.87;;;15.50;;
14470;SDS011;7321;50.802;4.336;2023-11-18T00:20:02;22.27;;;16.60;;
14470;SDS011;7321;50.802;4.336;2023-11-18T00:22:33;21.73;;;15.30;;
14470;SDS011;7321;50.802;4.336;2023-11-18T00:24:59;18.03;;;14.83;;
14470;SDS011;7321;50.802;4.336;2023-11-18T00:27:25;24.93;;;16.00;;
14470;SDS011;7321;50.802;4.336;2023-11-18T00:29:51;20.90;;;15.57;;
14470;SDS011;7321;50.802;4.336;2023-11-18T00:32:18;18.20;;;15.40;;
14470;SDS011;7321;50.802;4.336;2023-11-18T00:34:44;22.20;;;15.50;;
14470;SDS011;7321;50.802;4.336;2023-11-18T00:37:10;20.53;;;15.50;;
14470;SDS011;7321;50.802;4.336;2023-11-18T00:39:36;21.23;;;14.80;;
14470;SDS011;7321;50.802;4.336;2023-11-18T00:42:02;19.80;;;15.57;;
14470;SDS011;7321;50.802;4.336;2023-11-18T00:44:28;21.40;;;14.40;;
14470;SDS011;7321;50.802;4.336;2023-11-18T00:46:54;18.30;;;14.80;;
14470;SDS011;7321;50.802;4.336;2023-11-18T00:49:21;18.47;;;14.47;;
14470;SDS011;7321;50.802;4.336;2023-11-18T00:51:47;23.50;;;14.23;;
14470;SDS011;7321;50.802;4.336;2023-11-18T00:54:13;19.37;;;14.63;;
14470;SDS011;7321;50.802;4.336;2023-11-18T00:56:39;20.73;;;13.10;;
14470;SDS011;7321;50.802;4.336;2023-11-18T00:59:04;20.10;;;12.73;;
14470;SDS011;7321;50.802;4.336;2023-11-18T01:01:31;19.57;;;14.27;;
14470;SDS011;7321;50.802;4.336;2023-11-18T01:03:57;22.73;;;15.70;;
14470;SDS011;7321;50.802;4.336;2023-11-18T01:06:25;18.57;;;13.70;;
14470;SDS011;7321;50.802;4.336;2023-11-18T01:08:51;17.83;;;12.50;;
14470;SDS011;7321;50.802;4.336;2023-11-18T01:11:18;14.80;;;12.60;;
14470;SDS011;7321;50.802;4.336;2023-11-18T01:13:48;19.00;;;13.33;;
14470;SDS011;7321;50.802;4.336;2023-11-18T01:16:14;21.13;;;12.77;;
14470;SDS011;7321;50.802;4.336;2023-11-18T01:18:40;16.80;;;12.97;;
14470;SDS011;7321;50.802;4.336;2023-11-18T01:21:07;17.50;;;13.03;;
14470;SDS011;7321;50.802;4.336;2023-11-18T01:23:37;19.87;;;12.57;;
14470;SDS011;7321;50.802;4.336;2023-11-18T01:26:04;13.10;;;11.67;;
14470;SDS011;7321;50.802;4.336;2023-11-18T01:28:34;14.37;;;11.87;;
14470;SDS011;7321;50.802;4.336;2023-11-18T01:31:06;17.60;;;11.67;;
14470;SDS011;7321;50.802;4.336;2023-11-18T01:33:39;16.93;;;11.70;;
14470;SDS011;7321;50.802;4.336;2023-11-18T01:36:06;14.93;;;11.03;;
14470;SDS011;7321;50.802;4.336;2023-11-18T01:38:37;16.73;;;11.73;;
14470;SDS011;7321;50.802;4.336;2023-11-18T01:41:04;16.73;;;10.33;;
14470;SDS011;7321;50.802;4.336;2023-11-18T01:43:30;15.53;;;10.63;;
14470;SDS011;7321;50.802;4.336;2023-11-18T01:45:59;15.07;;;10.23;;
14470;SDS011;7321;50.802;4.336;2023-11-18T01:48:33;14.30;;;9.70;;
14470;SDS011;7321;50.802;4.336;2023-11-18T01:50:59;14.67;;;9.60;;
14470;SDS011;7321;50.802;4.336;2023-11-18T01:53:26;14.53;;;10.53;;
14470;SDS011;7321;50.802;4.336;2023-11-18T01:55:54;12.53;;;10.50;;
14470;SDS011;7321;50.802;4.336;2023-11-18T01:58:20;15.57;;;9.90;;
14470;SDS011;7321;50.802;4.336;2023-11-18T02:00:48;13.60;;;9.20;;
14470;SDS011;7321;50.802;4.336;2023-11-18T02:03:16;13.50;;;9.27;;
14470;SDS011;7321;50.802;4.336;2023-11-18T02:05:42;10.57;;;8.77;;
14470;SDS011;7321;50.802;4.336;2023-11-18T02:08:09;12.80;;;9.60;;
14470;SDS011;7321;50.802;4.336;2023-11-18T02:10:54;12.43;;;8.87;;
14470;SDS011;7321;50.802;4.336;2023-11-18T02:13:32;14.13;;;7.93;;
14470;SDS011;7321;50.802;4.336;2023-11-18T02:16:01;11.83;;;8.47;;
14470;SDS011;7321;50.802;4.336;2023-11-18T02:18:32;12.17;;;8.03;;
14470;SDS011;7321;50.802;4.336;2023-11-18T02:20:59;15.60;;;8.20;;
14470;SDS011;7321;50.802;4.336;2023-11-18T02:23:25;14.07;;;8.33;;
14470;SDS011;7321;50.802;4.336;2023-11-18T02:25:52;12.93;;;7.80;;
14470;SDS011;7321;50.802;4.336;2023-11-18T02:28:18;12.13;;;8.30;;
14470;SDS011;7321;50.802;4.336;2023-11-18T02:30:45;12.37;;;8.07;;
14470;SDS011;7321;50.802;4.336;2023-11-18T02:36:05;11.10;;;7.73;;
14470;SDS011;7321;50.802;4.336;2023-11-18T02:38:37;10.83;;;7.40;;
14470;SDS011;7321;50.802;4.336;2023-11-18T02:41:10;11.03;;;7.20;;
14470;SDS011;7321;50.802;4.336;2023-11-18T02:43:39;10.57;;;7.13;;
14470;SDS011;7321;50.802;4.336;2023-11-18T02:46:06;11.63;;;6.83;;
14470;SDS011;7321;50.802;4.336;2023-11-18T02:48:34;14.47;;;6.87;;
14470;SDS011;7321;50.802;4.336;2023-11-18T02:51:02;7.73;;;6.17;;
14470;SDS011;7321;50.802;4.336;2023-11-18T02:53:29;9.17;;;6.80;;
14470;SDS011;7321;50.802;4.336;2023-11-18T02:55:55;9.47;;;6.07;;
14470;SDS011;7321;50.802;4.336;2023-11-18T02:58:31;10.93;;;6.53;;
14470;SDS011;7321;50.802;4.336;2023-11-18T03:00:58;9.17;;;6.50;;
14470;SDS011;7321;50.802;4.336;2023-11-18T03:03:25;13.47;;;6.60;;
14470;SDS011;7321;50.802;4.336;2023-11-18T03:05:53;17.33;;;6.93;;
14470;SDS011;7321;50.802;4.336;2023-11-18T03:08:18;8.10;;;5.67;;
14470;SDS011;7321;50.802;4.336;2023-11-18T03:10:44;8.33;;;5.20;;
14470;SDS011;7321;50.802;4.336;2023-11-18T03:13:10;8.33;;;5.53;;
14470;SDS011;7321;50.802;4.336;2023-11-18T03:15:37;9.13;;;4.97;;
14470;SDS011;7321;50.802;4.336;2023-11-18T03:18:03;10.80;;;4.73;;
14470;SDS011;7321;50.802;4.336;2023-11-18T03:20:30;10.17;;;5.20;;
14470;SDS011;7321;50.802;4.336;2023-11-18T03:22:59;8.63;;;5.10;;
14470;SDS011;7321;50.802;4.336;2023-11-18T03:25:28;9.43;;;5.37;;
14470;SDS011;7321;50.802;4.336;2023-11-18T03:27:54;11.20;;;5.40;;
14470;SDS011;7321;50.802;4.336;2023-11-18T03:30:20;8.87;;;4.47;;
14470;SDS011;7321;50.802;4.336;2023-11-18T03:32:46;13.70;;;5.03;;
14470;SDS011;7321;50.802;4.336;2023-11-18T03:35:12;14.77;;;4.33;;
14470;SDS011;7321;50.802;4.336;2023-11-18T03:37:39;7.53;;;5.40;;
14470;SDS011;7321;50.802;4.336;2023-11-18T03:40:08;11.07;;;5.17;;
14470;SDS011;7321;50.802;4.336;2023-11-18T03:42:38;13.30;;;5.03;;
14470;SDS011;7321;50.802;4.336;2023-11-18T03:45:05;9.10;;;4.60;;
14470;SDS011;7321;50.802;4.336;2023-11-18T03:47:31;6.73;;;4.53;;
14470;SDS011;7321;50.802;4.336;2023-11-18T03:49:59;9.83;;;4.60;;
14470;SDS011;7321;50.802;4.336;2023-11-18T03:52:24;7.27;;;4.27;;
14470;SDS011;7321;50.802;4.336;2023-11-18T03:54:51;9.30;;;4.47;;
14470;SDS011;7321;50.802;4.336;2023-11-18T03:57:16;7.17;;;4.47;;
14470;SDS011;7321;50.802;4.336;2023-11-18T03:59:42;10.60;;;4.07;;
14470;SDS011;7321;50.802;4.336;2023-11-18T04:02:08;7.60;;;4.30;;
14470;SDS011;7321;50.802;4.336;2023-11-18T04:04:36;9.57;;;3.90;;
14470;SDS011;7321;50.802;4.336;2023-11-18T04:07:02;6.13;;;3.87;;
14470;SDS011;7321;50.802;4.336;2023-11-18T04:09:29;8.63;;;3.83;;
14470;SDS011;7321;50.802;4.336;2023-11-18T04:11:55;13.07;;;4.03;;
14470;SDS011;7321;50.802;4.336;2023-11-18T04:14:21;12.43;;;4.00;;
14470;SDS011;7321;50.802;4.336;2023-11-18T04:16:47;6.40;;;3.43;;
14470;SDS011;7321;50.802;4.336;2023-11-18T04:19:14;10.83;;;3.87;;
14470;SDS011;7321;50.802;4.336;2023-11-18T04:21:40;9.07;;;3.73;;
14470;SDS011;7321;50.802;4.336;2023-11-18T04:24:06;8.53;;;3.40;;
14470;SDS011;7321;50.802;4.336;2023-11-18T04:26:32;8.53;;;3.67;;
14470;SDS011;7321;50.802;4.336;2023-11-18T04:28:58;5.47;;;3.20;;
14470;SDS011;7321;50.802;4.336;2023-11-18T04:31:24;10.20;;;3.40;;
14470;SDS011;7321;50.802;4.336;2023-11-18T04:33:50;8.73;;;3.13;;
14470;SDS011;7321;50.802;4.336;2023-11-18T04:36:16;5.53;;;2.70;;
14470;SDS011;7321;50.802;4.336;2023-11-18T04:38:42;8.47;;;3.30;;
14470;SDS011;7321;50.802;4.336;2023-11-18T04:41:11;11.37;;;3.30;;
14470;SDS011;7321;50.802;4.336;2023-11-18T04:43:37;8.47;;;3.27;;
14470;SDS011;7321;50.802;4.336;2023-11-18T04:46:04;8.27;;;3.47;;
14470;SDS011;7321;50.802;4.336;2023-11-18T04:48:30;6.37;;;2.70;;
14470;SDS011;7321;50.802;4.336;2023-11-18T04:50:56;9.80;;;2.87;;
14470;SDS011;7321;50.802;4.336;2023-11-18T04:53:22;7.83;;;2.80;;
14470;SDS011;7321;50.802;4.336;2023-11-18T04:55:48;7.00;;;2.90;;
14470;SDS011;7321;50.802;4.336;2023-11-18T04:58:13;8.17;;;3.10;;
14470;SDS011;7321;50.802;4.336;2023-11-18T05:00:41;7.63;;;3.37;;
14470;SDS011;7321;50.802;4.336;2023-11-18T05:03:07;5.83;;;3.00;;
14470;SDS011;7321;50.802;4.336;2023-11-18T05:05:37;9.37;;;2.80;;
14470;SDS011;7321;50.802;4.336;2023-11-18T05:08:04;5.70;;;2.80;;
14470;SDS011;7321;50.802;4.336;2023-11-18T05:10:32;8.13;;;2.83;;
14470;SDS011;7321;50.802;4.336;2023-11-18T05:12:58;8.10;;;2.70;;
14470;SDS011;7321;50.802;4.336;2023-11-18T05:15:24;7.10;;;3.20;;
14470;SDS011;7321;50.802;4.336;2023-11-18T05:17:53;8.40;;;3.20;;
14470;SDS011;7321;50.802;4.336;2023-11-18T05:20:19;7.27;;;2.67;;
14470;SDS011;7321;50.802;4.336;2023-11-18T05:22:46;12.93;;;4.23;;
14470;SDS011;7321;50.802;4.336;2023-11-18T05:25:12;7.43;;;3.20;;
14470;SDS011;7321;50.802;4.336;2023-11-18T05:27:39;11.57;;;3.60;;
14470;SDS011;7321;50.802;4.336;2023-11-18T05:30:09;10.10;;;3.20;;
14470;SDS011;7321;50.802;4.336;2023-11-18T05:32:36;6.97;;;3.17;;
14470;SDS011;7321;50.802;4.336;2023-11-18T05:35:02;10.53;;;3.00;;
14470;SDS011;7321;50.802;4.336;2023-11-18T05:37:30;6.40;;;2.93;;
14470;SDS011;7321;50.802;4.336;2023-11-18T05:40:00;9.00;;;3.63;;
14470;SDS011;7321;50.802;4.336;2023-11-18T05:42:32;6.93;;;3.20;;
14470;SDS011;7321;50.802;4.336;2023-11-18T05:45:01;8.80;;;3.03;;
14470;SDS011;7321;50.802;4.336;2023-11-18T05:47:27;10.30;;;3.23;;
14470;SDS011;7321;50.802;4.336;2023-11-18T05:49:53;6.87;;;3.30;;
14470;SDS011;7321;50.802;4.336;2023-11-18T05:52:19;7.13;;;3.50;;
14470;SDS011;7321;50.802;4.336;2023-11-18T05:54:46;5.83;;;3.10;;
14470;SDS011;7321;50.802;4.336;2023-11-18T05:57:15;7.53;;;3.50;;
14470;SDS011;7321;50.802;4.336;2023-11-18T05:59:44;7.67;;;3.17;;
14470;SDS011;7321;50.802;4.336;2023-11-18T06:02:13;7.17;;;3.27;;
14470;SDS011;7321;50.802;4.336;2023-11-18T06:04:46;5.70;;;3.80;;
14470;SDS011;7321;50.802;4.336;2023-11-18T06:07:12;9.00;;;3.73;;
14470;SDS011;7321;50.802;4.336;2023-11-18T06:09:39;6.70;;;3.27;;
14470;SDS011;7321;50.802;4.336;2023-11-18T06:12:07;7.33;;;3.40;;
14470;SDS011;7321;50.802;4.336;2023-11-18T06:14:36;8.97;;;2.87;;
14470;SDS011;7321;50.802;4.336;2023-11-18T06:17:02;6.97;;;3.03;;
14470;SDS011;7321;50.802;4.336;2023-11-18T06:19:31;5.17;;;2.83;;
14470;SDS011;7321;50.802;4.336;2023-11-18T06:21:57;5.70;;;2.97;;
14470;SDS011;7321;50.802;4.336;2023-11-18T06:24:23;10.43;;;3.40;;
14470;SDS011;7321;50.802;4.336;2023-11-18T06:26:49;11.63;;;3.50;;
14470;SDS011;7321;50.802;4.336;2023-11-18T06:29:15;4.57;;;2.50;;
14470;SDS011;7321;50.802;4.336;2023-11-18T06:31:41;6.43;;;2.60;;
14470;SDS011;7321;50.802;4.336;2023-11-18T06:34:07;8.67;;;3.53;;
14470;SDS011;7321;50.802;4.336;2023-11-18T06:36:33;5.33;;;2.87;;
14470;SDS011;7321;50.802;4.336;2023-11-18T06:38:59;6.87;;;2.30;;
14470;SDS011;7321;50.802;4.336;2023-11-18T06:41:25;7.87;;;2.80;;
14470;SDS011;7321;50.802;4.336;2023-11-18T06:43:58;9.57;;;2.90;;
14470;SDS011;7321;50.802;4.336;2023-11-18T06:46:28;6.67;;;2.77;;
14470;SDS011;7321;50.802;4.336;2023-11-18T06:48:59;6.43;;;2.83;;
14470;SDS011;7321;50.802;4.336;2023-11-18T06:51:30;6.20;;;2.47;;
14470;SDS011;7321;50.802;4.336;2023-11-18T06:54:00;6.03;;;2.70;;
14470;SDS011;7321;50.802;4.336;2023-11-18T06:56:29;8.13;;;2.73;;
14470;SDS011;7321;50.802;4.336;2023-11-18T06:58:55;7.70;;;3.37;;
14470;SDS011;7321;50.802;4.336;2023-11-18T07:01:22;7.10;;;2.57;;
14470;SDS011;7321;50.802;4.336;2023-11-18T07:03:48;6.20;;;2.67;;
14470;SDS011;7321;50.802;4.336;2023-11-18T07:06:18;9.80;;;2.63;;
14470;SDS011;7321;50.802;4.336;2023-11-18T07:08:50;5.63;;;3.50;;
14470;SDS011;7321;50.802;4.336;2023-11-18T07:11:17;7.67;;;2.63;;
14470;SDS011;7321;50.802;4.336;2023-11-18T07:13:52;5.63;;;2.80;;
14470;SDS011;7321;50.802;4.336;2023-11-18T07:16:22;7.13;;;2.90;;
14470;SDS011;7321;50.802;4.336;2023-11-18T07:18:49;7.97;;;3.13;;
14470;SDS011;7321;50.802;4.336;2023-11-18T07:21:15;6.77;;;3.17;;
14470;SDS011;7321;50.802;4.336;2023-11-18T07:23:40;9.53;;;4.07;;
14470;SDS011;7321;50.802;4.336;2023-11-18T07:26:07;10.57;;;3.83;;
14470;SDS011;7321;50.802;4.336;2023-11-18T07:28:35;9.57;;;3.97;;
14470;SDS011;7321;50.802;4.336;2023-11-18T07:31:01;8.00;;;4.13;;
14470;SDS011;7321;50.802;4.336;2023-11-18T07:33:30;6.60;;;3.70;;
14470;SDS011;7321;50.802;4.336;2023-11-18T07:35:59;9.30;;;3.77;;
14470;SDS011;7321;50.802;4.336;2023-11-18T07:38:31;12.77;;;5.10;;
14470;SDS011;7321;50.802;4.336;2023-11-18T07:40:58;10.77;;;4.20;;
14470;SDS011;7321;50.802;4.336;2023-11-18T07:43:25;10.37;;;4.60;;
14470;SDS011;7321;50.802;4.336;2023-11-18T07:45:53;12.23;;;4.70;;
14470;SDS011;7321;50.802;4.336;2023-11-18T07:48:19;8.87;;;4.73;;
14470;SDS011;7321;50.802;4.336;2023-11-18T07:50:46;10.40;;;5.30;;
14470;SDS011;7321;50.802;4.336;2023-11-18T07:53:12;11.20;;;5.50;;
14470;SDS011;7321;50.802;4.336;2023-11-18T07:55:39;10.67;;;5.37;;
14470;SDS011;7321;50.802;4.336;2023-11-18T07:58:11;9.60;;;5.40;;
14470;SDS011;7321;50.802;4.336;2023-11-18T08:00:41;10.90;;;5.30;;
14470;SDS011;7321;50.802;4.336;2023-11-18T08:03:10;12.17;;;6.10;;
14470;SDS011;7321;50.802;4.336;2023-11-18T08:05:39;9.40;;;5.90;;
14470;SDS011;7321;50.802;4.336;2023-11-18T08:08:06;11.43;;;6.20;;
14470;SDS011;7321;50.802;4.336;2023-11-18T08:10:33;14.60;;;6.80;;
14470;SDS011;7321;50.802;4.336;2023-11-18T08:13:06;12.57;;;6.00;;
14470;SDS011;7321;50.802;4.336;2023-11-18T08:15:33;9.27;;;6.27;;
14470;SDS011;7321;50.802;4.336;2023-11-18T08:18:00;10.17;;;6.73;;
14470;SDS011;7321;50.802;4.336;2023-11-18T08:20:28;13.13;;;6.63;;
14470;SDS011;7321;50.802;4.336;2023-11-18T08:22:53;9.63;;;6.47;;
14470;SDS011;7321;50.802;4.336;2023-11-18T08:25:20;14.43;;;7.87;;
14470;SDS011;7321;50.802;4.336;2023-11-18T08:27:47;15.23;;;8.23;;
14470;SDS011;7321;50.802;4.336;2023-11-18T08:30:13;12.90;;;6.67;;
14470;SDS011;7321;50.802;4.336;2023-11-18T08:32:43;12.50;;;6.70;;
14470;SDS011;7321;50.802;4.336;2023-11-18T08:35:10;12.93;;;7.67;;
14470;SDS011;7321;50.802;4.336;2023-11-18T08:37:38;13.37;;;7.47;;
14470;SDS011;7321;50.802;4.336;2023-11-18T08:40:06;12.93;;;7.33;;
14470;SDS011;7321;50.802;4.336;2023-11-18T08:42:43;10.30;;;6.93;;
14470;SDS011;7321;50.802;4.336;2023-11-18T08:45:18;10.73;;;7.07;;
14470;SDS011;7321;50.802;4.336;2023-11-18T08:47:47;13.80;;;7.90;;
14470;SDS011;7321;50.802;4.336;2023-11-18T08:50:16;11.73;;;7.57;;
14470;SDS011;7321;50.802;4.336;2023-11-18T08:52:43;15.73;;;7.70;;
14470;SDS011;7321;50.802;4.336;2023-11-18T08:55:17;13.83;;;7.80;;
14470;SDS011;7321;50.802;4.336;2023-11-18T08:57:49;10.60;;;6.57;;
14470;SDS011;7321;50.802;4.336;2023-11-18T09:00:28;12.27;;;7.10;;
14470;SDS011;7321;50.802;4.336;2023-11-18T09:03:09;12.50;;;7.40;;
14470;SDS011;7321;50.802;4.336;2023-11-18T09:06:02;9.30;;;6.90;;
14470;SDS011;7321;50.802;4.336;2023-11-18T09:08:42;10.50;;;7.17;;
14470;SDS011;7321;50.802;4.336;2023-11-18T09:11:17;11.97;;;6.80;;
14470;SDS011;7321;50.802;4.336;2023-11-18T09:13:45;11.70;;;6.97;;
14470;SDS011;7321;50.802;4.336;2023-11-18T09:16:25;10.97;;;7.03;;
14470;SDS011;7321;50.802;4.336;2023-11-18T09:18:54;9.13;;;7.00;;
14470;SDS011;7321;50.802;4.336;2023-11-18T09:21:23;8.17;;;6.67;;
14470;SDS011;7321;50.802;4.336;2023-11-18T09:23:50;7.03;;;6.30;;
14470;SDS011;7321;50.802;4.336;2023-11-18T09:26:16;10.63;;;6.93;;
14470;SDS011;7321;50.802;4.336;2023-11-18T09:28:42;11.40;;;6.67;;
14470;SDS011;7321;50.802;4.336;2023-11-18T09:31:15;8.23;;;5.90;;
14470;SDS011;7321;50.802;4.336;2023-11-18T09:33:42;12.00;;;7.40;;
14470;SDS011;7321;50.802;4.336;2023-11-18T09:36:17;12.60;;;7.43;;
14470;SDS011;7321;50.802;4.336;2023-11-18T09:38:44;11.47;;;7.60;;
14470;SDS011;7321;50.802;4.336;2023-11-18T09:41:12;10.63;;;7.60;;
14470;SDS011;7321;50.802;4.336;2023-11-18T09:43:42;9.30;;;7.30;;
14470;SDS011;7321;50.802;4.336;2023-11-18T09:46:11;10.13;;;6.97;;
14470;SDS011;7321;50.802;4.336;2023-11-18T09:48:42;9.27;;;7.07;;
14470;SDS011;7321;50.802;4.336;2023-11-18T09:51:08;10.83;;;7.27;;
14470;SDS011;7321;50.802;4.336;2023-11-18T09:53:38;10.93;;;6.43;;
14470;SDS011;7321;50.802;4.336;2023-11-18T09:56:13;9.77;;;6.20;;
14470;SDS011;7321;50.802;4.336;2023-11-18T09:58:57;9.70;;;6.27;;
14470;SDS011;7321;50.802;4.336;2023-11-18T10:01:45;7.73;;;6.40;;
14470;SDS011;7321;50.802;4.336;2023-11-18T10:04:19;8.10;;;6.10;;
14470;SDS011;7321;50.802;4.336;2023-11-18T10:06:46;8.17;;;6.43;;
14470;SDS011;7321;50.802;4.336;2023-11-18T10:09:17;7.47;;;6.60;;
14470;SDS011;7321;50.802;4.336;2023-11-18T10:11:53;10.57;;;6.33;;
14470;SDS011;7321;50.802;4.336;2023-11-18T10:14:30;8.60;;;6.73;;
14470;SDS011;7321;50.802;4.336;2023-11-18T10:16:57;7.83;;;6.47;;
14470;SDS011;7321;50.802;4.336;2023-11-18T10:19:24;8.67;;;6.67;;
14470;SDS011;7321;50.802;4.336;2023-11-18T10:21:51;9.97;;;6.93;;
14470;SDS011;7321;50.802;4.336;2023-11-18T10:24:17;12.17;;;8.70;;
14470;SDS011;7321;50.802;4.336;2023-11-18T10:26:56;7.27;;;6.37;;
14470;SDS011;7321;50.802;4.336;2023-11-18T10:29:23;11.03;;;6.80;;
14470;SDS011;7321;50.802;4.336;2023-11-18T10:32:02;8.07;;;6.53;;
14470;SDS011;7321;50.802;4.336;2023-11-18T10:34:45;9.93;;;6.47;;
14470;SDS011;7321;50.802;4.336;2023-11-18T10:37:12;7.63;;;6.10;;
14470;SDS011;7321;50.802;4.336;2023-11-18T10:39:38;8.00;;;6.60;;
14470;SDS011;7321;50.802;4.336;2023-11-18T10:42:04;7.17;;;6.00;;
14470;SDS011;7321;50.802;4.336;2023-11-18T10:44:30;6.60;;;5.50;;
14470;SDS011;7321;50.802;4.336;2023-11-18T10:46:56;7.00;;;5.23;;
14470;SDS011;7321;50.802;4.336;2023-11-18T10:49:27;8.03;;;5.50;;
14470;SDS011;7321;50.802;4.336;2023-11-18T10:51:55;5.40;;;4.90;;
14470;SDS011;7321;50.802;4.336;2023-11-18T10:54:25;5.67;;;4.70;;
14470;SDS011;7321;50.802;4.336;2023-11-18T10:56:51;6.07;;;4.77;;
14470;SDS011;7321;50.802;4.336;2023-11-18T10:59:22;6.60;;;4.60;;
14470;SDS011;7321;50.802;4.336;2023-11-18T11:01:48;4.57;;;4.17;;
14470;SDS011;7321;50.802;4.336;2023-11-18T11:04:14;8.47;;;4.07;;
14470;SDS011;7321;50.802;4.336;2023-11-18T11:06:46;6.37;;;4.10;;
14470;SDS011;7321;50.802;4.336;2023-11-18T11:09:22;5.07;;;3.27;;
14470;SDS011;7321;50.802;4.336;2023-11-18T11:12:06;4.33;;;2.93;;
14470;SDS011;7321;50.802;4.336;2023-11-18T11:14:42;3.77;;;2.40;;
14470;SDS011;7321;50.802;4.336;2023-11-18T11:17:17;11.50;;;6.67;;
14470;SDS011;7321;50.802;4.336;2023-11-18T11:20:07;6.80;;;3.70;;
14470;SDS011;7321;50.802;4.336;2023-11-18T11:22:46;3.53;;;2.50;;
14470;SDS011;7321;50.802;4.336;2023-11-18T11:28:22;2.60;;;1.80;;
14470;SDS011;7321;50.802;4.336;2023-11-18T11:30:58;4.33;;;3.53;;
14470;SDS011;7321;50.802;4.336;2023-11-18T11:33:49;3.50;;;2.20;;
14470;SDS011;7321;50.802;4.336;2023-11-18T11:36:25;3.03;;;2.17;;
14470;SDS011;7321;50.802;4.336;2023-11-18T11:38:59;1.97;;;1.60;;
14470;SDS011;7321;50.802;4.336;2023-11-18T11:41:28;4.27;;;3.83;;
14470;SDS011;7321;50.802;4.336;2023-11-18T11:43:59;2.13;;;1.70;;
14470;SDS011;7321;50.802;4.336;2023-11-18T11:46:26;2.87;;;2.10;;
14470;SDS011;7321;50.802;4.336;2023-11-18T11:48:59;3.20;;;1.80;;
14470;SDS011;7321;50.802;4.336;2023-11-18T11:52:03;2.23;;;1.70;;
14470;SDS011;7321;50.802;4.336;2023-11-18T11:55:00;5.63;;;2.23;;
14470;SDS011;7321;50.802;4.336;2023-11-18T11:57:49;5.67;;;4.13;;
14470;SDS011;7321;50.802;4.336;2023-11-18T12:00:18;3.27;;;1.80;;
14470;SDS011;7321;50.802;4.336;2023-11-18T12:02:48;2.73;;;2.10;;
14470;SDS011;7321;50.802;4.336;2023-11-18T12:05:18;1.87;;;1.77;;
14470;SDS011;7321;50.802;4.336;2023-11-18T12:07:54;2.73;;;1.90;;
14470;SDS011;7321;50.802;4.336;2023-11-18T12:10:21;4.47;;;3.27;;
14470;SDS011;7321;50.802;4.336;2023-11-18T12:13:06;4.20;;;1.60;;
14470;SDS011;7321;50.802;4.336;2023-11-18T12:15:53;4.07;;;2.40;;
14470;SDS011;7321;50.802;4.336;2023-11-18T12:18:22;1.60;;;1.50;;
14470;SDS011;7321;50.802;4.336;2023-11-18T12:20:49;3.00;;;1.60;;
14470;SDS011;7321;50.802;4.336;2023-11-18T12:23:27;2.27;;;1.17;;
14470;SDS011;7321;50.802;4.336;2023-11-18T12:25:54;2.40;;;1.27;;
14470;SDS011;7321;50.802;4.336;2023-11-18T12:28:29;2.90;;;1.50;;
14470;SDS011;7321;50.802;4.336;2023-11-18T12:31:00;1.20;;;1.10;;
14470;SDS011;7321;50.802;4.336;2023-11-18T12:45:32;2.70;;;1.33;;
14470;SDS011;7321;50.802;4.336;2023-11-18T12:48:10;1.93;;;1.47;;
14470;SDS011;7321;50.802;4.336;2023-11-18T12:50:40;1.30;;;1.20;;
14470;SDS011;7321;50.802;4.336;2023-11-18T12:53:09;2.37;;;1.60;;
14470;SDS011;7321;50.802;4.336;2023-11-18T12:55:36;1.17;;;0.90;;
14470;SDS011;7321;50.802;4.336;2023-11-18T12:58:05;2.40;;;1.20;;
14470;SDS011;7321;50.802;4.336;2023-11-18T13:00:32;1.07;;;0.90;;
14470;SDS011;7321;50.802;4.336;2023-11-18T13:03:00;6.37;;;4.40;;
14470;SDS011;7321;50.802;4.336;2023-11-18T13:05:26;1.90;;;1.70;;
14470;SDS011;7321;50.802;4.336;2023-11-18T13:07:55;1.10;;;1.00;;
14470;SDS011;7321;50.802;4.336;2023-11-18T13:10:23;1.37;;;1.07;;
14470;SDS011;7321;50.802;4.336;2023-11-18T13:12:52;0.80;;;0.80;;
14470;SDS011;7321;50.802;4.336;2023-11-18T13:15:19;2.90;;;1.50;;
14470;SDS011;7321;50.802;4.336;2023-11-18T13:20:25;1.23;;;0.90;;
14470;SDS011;7321;50.802;4.336;2023-11-18T13:22:51;1.10;;;0.97;;
14470;SDS011;7321;50.802;4.336;2023-11-18T13:25:23;4.17;;;3.03;;
14470;SDS011;7321;50.802;4.336;2023-11-18T13:27:50;13.43;;;10.40;;
14470;SDS011;7321;50.802;4.336;2023-11-18T13:30:16;8.43;;;6.43;;
14470;SDS011;7321;50.802;4.336;2023-11-18T13:32:45;5.53;;;4.67;;
14470;SDS011;7321;50.802;4.336;2023-11-18T13:35:14;1.97;;;1.77;;
14470;SDS011;7321;50.802;4.336;2023-11-18T13:37:46;1.47;;;1.30;;
14470;SDS011;7321;50.802;4.336;2023-11-18T13:40:13;1.40;;;0.97;;
14470;SDS011;7321;50.802;4.336;2023-11-18T13:42:41;0.90;;;0.90;;
14470;SDS011;7321;50.802;4.336;2023-11-18T13:45:11;1.27;;;1.10;;
14470;SDS011;7321;50.802;4.336;2023-11-18T13:47:41;0.83;;;0.83;;
14470;SDS011;7321;50.802;4.336;2023-11-18T13:50:15;2.70;;;1.40;;
14470;SDS011;7321;50.802;4.336;2023-11-18T13:52:42;4.63;;;3.93;;
14470;SDS011;7321;50.802;4.336;2023-11-18T13:55:14;1.30;;;1.20;;
14470;SDS011;7321;50.802;4.336;2023-11-18T13:57:52;1.57;;;1.47;;
14470;SDS011;7321;50.802;4.336;2023-11-18T14:00:21;2.40;;;2.20;;
14470;SDS011;7321;50.802;4.336;2023-11-18T14:02:48;1.70;;;1.60;;
14470;SDS011;7321;50.802;4.336;2023-11-18T14:05:16;1.20;;;1.10;;
14470;SDS011;7321;50.802;4.336;2023-11-18T14:07:53;3.50;;;2.90;;
14470;SDS011;7321;50.802;4.336;2023-11-18T14:10:21;1.20;;;1.10;;
14470;SDS011;7321;50.802;4.336;2023-11-18T14:15:47;8.83;;;7.43;;
14470;SDS011;7321;50.802;4.336;2023-11-18T14:18:23;1.53;;;1.43;;
14470;SDS011;7321;50.802;4.336;2023-11-18T14:20:49;1.10;;;1.00;;
14470;SDS011;7321;50.802;4.336;2023-11-18T14:23:15;1.53;;;1.23;;
14470;SDS011;7321;50.802;4.336;2023-11-18T14:25:41;1.63;;;1.53;;
14470;SDS011;7321;50.802;4.336;2023-11-18T14:28:07;1.57;;;1.10;;
14470;SDS011;7321;50.802;4.336;2023-11-18T14:30:35;1.40;;;1.30;;
14470;SDS011;7321;50.802;4.336;2023-11-18T14:33:01;1.63;;;1.03;;
14470;SDS011;7321;50.802;4.336;2023-11-18T14:35:29;1.00;;;1.00;;
14470;SDS011;7321;50.802;4.336;2023-11-18T14:37:55;0.90;;;0.90;;
14470;SDS011;7321;50.802;4.336;2023-11-18T14:40:21;2.13;;;1.40;;
14470;SDS011;7321;50.802;4.336;2023-11-18T14:42:49;1.20;;;1.10;;
14470;SDS011;7321;50.802;4.336;2023-11-18T14:45:16;1.70;;;1.60;;
14470;SDS011;7321;50.802;4.336;2023-11-18T14:47:42;1.20;;;1.10;;
14470;SDS011;7321;50.802;4.336;2023-11-18T14:50:18;1.27;;;1.10;;
14470;SDS011;7321;50.802;4.336;2023-11-18T14:52:49;0.90;;;0.90;;
14470;SDS011;7321;50.802;4.336;2023-11-18T14:55:28;0.80;;;0.80;;
14470;SDS011;7321;50.802;4.336;2023-11-18T14:57:54;9.23;;;6.40;;
14470;SDS011;7321;50.802;4.336;2023-11-18T15:00:21;3.20;;;1.83;;
14470;SDS011;7321;50.802;4.336;2023-11-18T15:02:50;0.97;;;0.97;;
14470;SDS011;7321;50.802;4.336;2023-11-18T15:05:17;1.20;;;1.10;;
14470;SDS011;7321;50.802;4.336;2023-11-18T15:07:45;1.10;;;1.00;;
14470;SDS011;7321;50.802;4.336;2023-11-18T15:10:16;3.13;;;1.30;;
14470;SDS011;7321;50.802;4.336;2023-11-18T15:12:47;1.10;;;1.10;;
14470;SDS011;7321;50.802;4.336;2023-11-18T15:15:14;1.00;;;0.90;;
14470;SDS011;7321;50.802;4.336;2023-11-18T15:17:44;1.17;;;1.00;;
14470;SDS011;7321;50.802;4.336;2023-11-18T15:20:12;1.27;;;1.00;;
14470;SDS011;7321;50.802;4.336;2023-11-18T15:22:38;1.00;;;1.00;;
14470;SDS011;7321;50.802;4.336;2023-11-18T15:25:04;0.80;;;0.80;;
14470;SDS011;7321;50.802;4.336;2023-11-18T15:27:35;1.43;;;1.33;;
14470;SDS011;7321;50.802;4.336;2023-11-18T15:30:01;2.83;;;2.30;;